메인 페이지
METAR-TAF:

METAR-TAF

공항 :

첸나이 국제공항

첸나이, 인도

위도: 13-00N, 경도: 080-11E, 고도: 10m

현재 날씨관측

예보는 36분 전, 21:00시(UTC)에 발표되었습니다.
여러 방향의 바람 2kt
온도 26°C
습도 84%
기압 1010 hPa
시정: 6000m
고도 2000ft 상공 구름 조금

METAR: VOMM 312100Z VRB02KT 6000 FEW020 26/23 Q1010 NOSIG

시각: 03:06 (21:36 UTC)

예보

예보는 4 시간 36분 전, 17:00시(UTC)에 발표되었습니다.
예보 대상 시간: 31일 18시부터 01일 24시까지 (UTC)
동남동5kt
시정: 6000m
고도 2000ft 상공 구름 조금
전환 중
31일 21시부터 31일 22시까지 (UTC)
남서5kt
시정: 4000m
박무
일시적
01일 00시부터 01일 03시까지 (UTC)
시정: 2000m
박무
전환 중
01일 05시부터 01일 06시까지 (UTC)
동남동10kt
시정: 6000m
전환 중
01일 21시부터 01일 22시까지 (UTC)
남서5kt
시정: 4000m
박무

TAF: VOMM 311700Z 3118/0124 12005KT 6000 FEW020 BECMG 3121/3122 23005KT 4000 BR TEMPO 0100/0103 2000 BR BECMG 0105/0106 12010KT 6000 BECMG 0121/0122 23005KT 4000 BR

4,000개 이상의 공항 관측 자료 및 예보 (METAR 및 TAF 보고).

지도상에서 검색 가능한 기상관측소가 노란 점과 빨간 점으로 표시되어 있습니다.

기상관측소 명을 보려면 표시 위로 마우스를 이동하세요.

날씨 관측과 예보를 보려면 클릭하세요.

지도 변경 : 확대하려면 엑스 표시가 있는 녹색 버튼, 축소하려면 빼기 표시가 있는 녹색 버튼, 다음 페이지의 지도를 보려면 녹색 화살표를 클릭하세요.


METAR-TAF: